Time;durP1;ratioP1;P1;durP2;ratioP2;P2;SDS_P1;SDS_P2;PMS_P1;PMS_P2;Temp;Humidity;BMP_temperature;BMP_pressure;BME280_temperature;BME280_humidity;BME280_pressure;Samples;Min_cycle;Max_cycle;Signal;HPM_P1;HPM_P2
2023/12/10 00:02:23;;;;;;;3.30;1.13;;;;;;;;;;5130986;27;20035;-85
2023/12/10 00:04:49;;;;;;;0.82;0.80;;;;;;;;;;5140089;27;20576;-88
2023/12/10 00:07:14;;;;;;;2.28;0.50;;;;;;;;;;5117461;27;20034;-84
2023/12/10 00:09:40;;;;;;;4.10;1.15;;;;;;;;;;5103206;27;20035;-84
2023/12/10 00:12:06;;;;;;;13.38;2.33;;;;;;;;;;5117865;27;20102;-83
2023/12/10 00:14:31;;;;;;;3.00;1.10;;;;;;;;;;5120168;27;20020;-87
2023/12/10 00:16:56;;;;;;;1.27;0.60;;;;;;;;;;5102053;27;20025;-85
2023/12/10 00:19:22;;;;;;;2.08;0.30;;;;;;;;;;5121421;27;20027;-86
2023/12/10 00:21:47;;;;;;;1.15;1.00;;;;;;;;;;5101855;27;20031;-86
2023/12/10 00:24:13;;;;;;;0.40;0.40;;;;;;;;;;5120661;27;20031;-85
2023/12/10 00:26:38;;;;;;;2.03;1.15;;;;;;;;;;5120043;27;20026;-86
2023/12/10 00:29:04;;;;;;;1.13;0.82;;;;;;;;;;5107754;27;20107;-85
2023/12/10 00:31:29;;;;;;;3.45;1.50;;;;;;;;;;5131062;27;20099;-86
2023/12/10 00:33:55;;;;;;;9.85;1.17;;;;;;;;;;5095595;28;20149;-87
2023/12/10 00:36:20;;;;;;;2.30;1.15;;;;;;;;;;5099710;27;20048;-86
2023/12/10 00:38:45;;;;;;;12.55;2.80;;;;;;;;;;5115590;27;20012;-83
2023/12/10 00:41:12;;;;;;;9.82;2.22;;;;;;;;;;5128483;27;20034;-88
2023/12/10 00:43:41;;;;;;;3.55;0.80;;;;;;;;;;5096928;27;20518;-86
2023/12/10 00:46:07;;;;;;;3.70;1.23;;;;;;;;;;5119424;27;20023;-87
2023/12/10 00:48:34;;;;;;;4.03;1.83;;;;;;;;;;5118560;27;20024;-87
2023/12/10 00:51:00;;;;;;;1.73;1.23;;;;;;;;;;5116237;27;20027;-84
2023/12/10 00:53:25;;;;;;;3.97;1.23;;;;;;;;;;5116178;27;20031;-86
2023/12/10 00:55:50;;;;;;;3.60;1.50;;;;;;;;;;5097120;28;20113;-85
2023/12/10 00:58:16;;;;;;;5.32;1.70;;;;;;;;;;5096195;27;20872;-88
2023/12/10 01:00:41;;;;;;;1.67;1.23;;;;;;;;;;5116487;27;20023;-86
2023/12/10 01:03:07;;;;;;;3.05;1.33;;;;;;;;;;5110240;27;20032;-83
2023/12/10 01:05:32;;;;;;;7.47;1.42;;;;;;;;;;5114782;27;21392;-83
2023/12/10 01:07:58;;;;;;;3.30;1.48;;;;;;;;;;5113457;27;20023;-88
2023/12/10 01:10:24;;;;;;;3.42;1.02;;;;;;;;;;5115567;27;20030;-86
2023/12/10 01:12:49;;;;;;;12.88;1.77;;;;;;;;;;5119854;27;20076;-85
2023/12/10 01:15:16;;;;;;;1.15;0.98;;;;;;;;;;5096336;27;20015;-87
2023/12/10 01:17:41;;;;;;;1.67;1.05;;;;;;;;;;5101278;27;20028;-85
2023/12/10 01:20:07;;;;;;;9.63;2.00;;;;;;;;;;5096200;28;20084;-83
2023/12/10 01:22:32;;;;;;;4.25;1.05;;;;;;;;;;5112353;27;20156;-86
2023/12/10 01:24:58;;;;;;;4.47;2.13;;;;;;;;;;5116362;27;20028;-87
2023/12/10 01:27:24;;;;;;;7.70;2.05;;;;;;;;;;5097691;27;20038;-89
2023/12/10 01:29:49;;;;;;;9.07;1.73;;;;;;;;;;5116314;27;20171;-88
2023/12/10 01:32:15;;;;;;;13.15;2.22;;;;;;;;;;5094528;27;21015;-86
2023/12/10 01:34:44;;;;;;;24.23;2.72;;;;;;;;;;5102119;27;20023;-85
2023/12/10 01:37:09;;;;;;;7.55;1.98;;;;;;;;;;5100412;27;20043;-85
2023/12/10 01:39:35;;;;;;;9.73;1.70;;;;;;;;;;5113015;27;20031;-89
2023/12/10 01:42:00;;;;;;;7.85;1.63;;;;;;;;;;5110745;27;20091;-88
2023/12/10 01:44:26;;;;;;;7.05;1.92;;;;;;;;;;5113940;27;20028;-85
2023/12/10 01:46:53;;;;;;;11.93;2.83;;;;;;;;;;5115152;27;20100;-84
2023/12/10 01:49:19;;;;;;;12.50;2.65;;;;;;;;;;5107760;27;20134;-87
2023/12/10 01:51:45;;;;;;;9.10;1.27;;;;;;;;;;5131953;27;20031;-87
2023/12/10 01:54:24;;;;;;;9.18;2.03;;;;;;;;;;5101605;27;20107;-86
2023/12/10 01:56:50;;;;;;;3.13;0.90;;;;;;;;;;5115545;27;20028;-87
2023/12/10 01:59:18;;;;;;;6.90;2.15;;;;;;;;;;5116456;27;20034;-86
2023/12/10 02:01:44;;;;;;;9.10;1.40;;;;;;;;;;5107188;28;20126;-87
2023/12/10 02:04:10;;;;;;;12.13;2.15;;;;;;;;;;5119544;27;20054;-86
2023/12/10 02:06:35;;;;;;;1.35;0.95;;;;;;;;;;5119084;27;20034;-84
2023/12/10 02:09:01;;;;;;;8.18;1.83;;;;;;;;;;5099679;28;20012;-83
2023/12/10 02:11:27;;;;;;;9.07;1.98;;;;;;;;;;5117452;28;20034;-88
2023/12/10 02:13:53;;;;;;;9.75;1.73;;;;;;;;;;5116200;28;20148;-88
2023/12/10 02:16:18;;;;;;;9.98;1.73;;;;;;;;;;5100406;28;20118;-83
2023/12/10 02:18:44;;;;;;;11.07;2.38;;;;;;;;;;5119324;28;20015;-84
2023/12/10 02:21:09;;;;;;;3.67;1.88;;;;;;;;;;5100675;28;20031;-85
2023/12/10 02:23:49;;;;;;;7.57;1.50;;;;;;;;;;5115572;28;20110;-83
2023/12/10 02:26:15;;;;;;;4.53;0.93;;;;;;;;;;5099713;28;20035;-85
2023/12/10 02:28:41;;;;;;;1.75;0.73;;;;;;;;;;5103464;28;20038;-86
2023/12/10 02:31:07;;;;;;;5.05;1.98;;;;;;;;;;5115928;28;20107;-86
2023/12/10 02:33:32;;;;;;;10.23;2.15;;;;;;;;;;5101900;28;20473;-85
2023/12/10 02:35:58;;;;;;;8.07;2.00;;;;;;;;;;5128771;28;20023;-88
2023/12/10 02:38:23;;;;;;;10.20;1.70;;;;;;;;;;5106984;28;20031;-86
2023/12/10 02:40:49;;;;;;;8.75;1.50;;;;;;;;;;5108760;28;20084;-85
2023/12/10 02:43:16;;;;;;;9.93;1.70;;;;;;;;;;5130713;28;20086;-87
2023/12/10 02:45:42;;;;;;;1.88;0.57;;;;;;;;;;5110394;28;20525;-86
2023/12/10 02:48:08;;;;;;;4.03;0.70;;;;;;;;;;5141548;27;20023;-86
2023/12/10 02:50:33;;;;;;;0.55;0.55;;;;;;;;;;5117512;28;20015;-88
2023/12/10 02:52:58;;;;;;;2.75;0.77;;;;;;;;;;5125071;28;20080;-86
2023/12/10 02:55:24;;;;;;;1.65;0.95;;;;;;;;;;5106388;28;20031;-87
2023/12/10 02:57:49;;;;;;;1.50;0.73;;;;;;;;;;5126040;27;20050;-87
2023/12/10 03:00:16;;;;;;;3.42;0.65;;;;;;;;;;5111057;28;20179;-86
2023/12/10 03:02:41;;;;;;;1.92;0.40;;;;;;;;;;5107422;27;20042;-86
2023/12/10 03:05:08;;;;;;;0.88;0.40;;;;;;;;;;5118803;27;20323;-86
2023/12/10 03:07:33;;;;;;;7.35;0.93;;;;;;;;;;5112145;28;20020;-86
2023/12/10 03:09:59;;;;;;;1.75;0.85;;;;;;;;;;5132171;27;20054;-87
2023/12/10 03:12:25;;;;;;;3.22;1.02;;;;;;;;;;5127279;27;20663;-88
2023/12/10 03:14:50;;;;;;;3.03;0.93;;;;;;;;;;5121853;27;20042;-87
2023/12/10 03:17:15;;;;;;;0.65;0.65;;;;;;;;;;5125300;27;20020;-85
2023/12/10 03:19:41;;;;;;;4.32;0.90;;;;;;;;;;5098616;28;20019;-86
2023/12/10 03:22:06;;;;;;;4.78;1.33;;;;;;;;;;5101620;27;20489;-86
2023/12/10 03:24:31;;;;;;;0.55;0.35;;;;;;;;;;5115333;27;20068;-85
2023/12/10 03:26:57;;;;;;;0.63;0.35;;;;;;;;;;5107934;28;20023;-88
2023/12/10 03:29:22;;;;;;;1.50;0.60;;;;;;;;;;5109193;27;20019;-85
2023/12/10 03:31:47;;;;;;;0.55;0.55;;;;;;;;;;5109840;28;20028;-87
2023/12/10 03:34:13;;;;;;;2.58;0.73;;;;;;;;;;5110446;27;20463;-88
2023/12/10 03:36:54;;;;;;;3.13;0.65;;;;;;;;;;5123406;27;20137;-88
2023/12/10 03:39:22;;;;;;;12.18;1.50;;;;;;;;;;5131199;27;20051;-86
2023/12/10 03:41:49;;;;;;;9.27;1.13;;;;;;;;;;5118151;27;20107;-85
2023/12/10 03:44:14;;;;;;;7.28;1.20;;;;;;;;;;5126961;27;20023;-89
2023/12/10 03:46:39;;;;;;;4.13;0.77;;;;;;;;;;5145107;27;20020;-84
2023/12/10 03:49:05;;;;;;;1.80;0.88;;;;;;;;;;5118107;27;20034;-88
2023/12/10 03:51:30;;;;;;;2.40;1.02;;;;;;;;;;5130926;27;20023;-86
2023/12/10 03:53:55;;;;;;;2.05;0.82;;;;;;;;;;5117925;27;20041;-85
2023/12/10 03:56:21;;;;;;;10.60;1.60;;;;;;;;;;5120367;27;20019;-88
2023/12/10 03:58:46;;;;;;;7.15;1.13;;;;;;;;;;5119548;28;20027;-82
2023/12/10 04:01:11;;;;;;;6.97;1.15;;;;;;;;;;5113149;27;20039;-86
2023/12/10 04:03:37;;;;;;;8.02;2.10;;;;;;;;;;5133631;27;20035;-85
2023/12/10 04:06:03;;;;;;;7.30;1.63;;;;;;;;;;5126018;27;20030;-84
2023/12/10 04:08:28;;;;;;;4.60;0.73;;;;;;;;;;5125229;27;20031;-85
2023/12/10 04:10:56;;;;;;;3.92;0.95;;;;;;;;;;5108317;27;20041;-87
2023/12/10 04:13:47;;;;;;;10.25;1.10;;;;;;;;;;5117025;27;20023;-86
2023/12/10 04:16:23;;;;;;;9.90;1.52;;;;;;;;;;5125246;27;20081;-86
2023/12/10 04:18:48;;;;;;;3.10;1.20;;;;;;;;;;5132388;27;20178;-85
2023/12/10 04:21:13;;;;;;;1.27;0.90;;;;;;;;;;5135765;27;20174;-88
2023/12/10 04:23:57;;;;;;;1.65;0.93;;;;;;;;;;5121536;27;20027;-87
2023/12/10 04:26:22;;;;;;;7.57;1.23;;;;;;;;;;5108645;27;20042;-84
2023/12/10 04:28:48;;;;;;;11.60;1.88;;;;;;;;;;5131018;27;20023;-87
2023/12/10 04:31:14;;;;;;;7.47;2.92;;;;;;;;;;5126825;27;20015;-85
2023/12/10 04:33:42;;;;;;;4.35;1.98;;;;;;;;;;5112808;27;20027;-87
2023/12/10 04:36:08;;;;;;;6.07;1.63;;;;;;;;;;5130671;27;20015;-88
2023/12/10 04:38:33;;;;;;;4.75;1.63;;;;;;;;;;5101609;27;20209;-85
2023/12/10 04:40:59;;;;;;;8.63;2.25;;;;;;;;;;5115306;27;20042;-87
2023/12/10 04:43:24;;;;;;;8.80;2.30;;;;;;;;;;5135829;27;20393;-86
2023/12/10 04:45:49;;;;;;;3.10;1.90;;;;;;;;;;5105270;27;20026;-85
2023/12/10 04:48:15;;;;;;;10.75;1.60;;;;;;;;;;5131405;27;20491;-85
2023/12/10 04:51:18;;;;;;;5.00;1.20;;;;;;;;;;5100649;27;20023;-85
2023/12/10 04:53:44;;;;;;;11.85;1.33;;;;;;;;;;5115226;27;20031;-85
2023/12/10 04:56:09;;;;;;;5.72;0.93;;;;;;;;;;5132640;27;20030;-88
2023/12/10 04:58:35;;;;;;;3.30;1.33;;;;;;;;;;5114578;28;20110;-86
2023/12/10 05:01:02;;;;;;;7.18;1.50;;;;;;;;;;5127119;27;20075;-85
2023/12/10 05:03:56;;;;;;;7.13;1.65;;;;;;;;;;5127206;27;20015;-86
2023/12/10 05:06:22;;;;;;;4.68;1.05;;;;;;;;;;5122290;27;20027;-89
2023/12/10 05:08:57;;;;;;;2.28;0.70;;;;;;;;;;5105813;28;20071;-85
2023/12/10 05:11:23;;;;;;;8.70;2.75;;;;;;;;;;5102971;28;20095;-85
2023/12/10 05:13:48;;;;;;;2.88;1.27;;;;;;;;;;5103483;27;20118;-88
2023/12/10 05:16:13;;;;;;;3.80;1.40;;;;;;;;;;5132878;27;20023;-83
2023/12/10 05:18:39;;;;;;;2.70;1.02;;;;;;;;;;5127819;27;20043;-87
2023/12/10 05:24:26;;;;;;;1.95;0.73;;;;;;;;;;5122753;27;20031;-85
2023/12/10 05:27:04;;;;;;;5.32;0.82;;;;;;;;;;5122728;27;20403;-87
2023/12/10 05:29:39;;;;;;;5.15;1.42;;;;;;;;;;5108697;27;20039;-87
2023/12/10 05:32:05;;;;;;;2.53;0.90;;;;;;;;;;5133704;27;20030;-85
2023/12/10 05:34:30;;;;;;;4.07;1.50;;;;;;;;;;5120138;27;20026;-87
2023/12/10 05:36:55;;;;;;;8.05;1.55;;;;;;;;;;5125244;27;20015;-86
2023/12/10 05:39:21;;;;;;;11.05;2.20;;;;;;;;;;5117553;28;20015;-86
2023/12/10 05:41:46;;;;;;;9.77;0.47;;;;;;;;;;5121325;27;20023;-87
2023/12/10 05:44:11;;;;;;;6.43;1.25;;;;;;;;;;5122270;27;20106;-87
2023/12/10 05:46:49;;;;;;;1.50;0.68;;;;;;;;;;5108838;27;20027;-87
2023/12/10 05:49:17;;;;;;;1.52;0.50;;;;;;;;;;5107239;27;20453;-86
2023/12/10 05:51:42;;;;;;;10.57;1.80;;;;;;;;;;5103727;28;20026;-86
2023/12/10 05:54:08;;;;;;;5.75;1.13;;;;;;;;;;5132345;27;20023;-86
2023/12/10 05:56:33;;;;;;;5.65;1.45;;;;;;;;;;5120472;27;20019;-86
2023/12/10 05:59:01;;;;;;;3.80;1.17;;;;;;;;;;5125710;27;20461;-85
2023/12/10 06:01:26;;;;;;;10.93;2.22;;;;;;;;;;5111008;28;20537;-85
2023/12/10 06:03:51;;;;;;;2.63;1.17;;;;;;;;;;5122628;27;20160;-87
2023/12/10 06:06:17;;;;;;;5.00;1.33;;;;;;;;;;5105492;27;20048;-86
2023/12/10 06:08:42;;;;;;;3.05;1.02;;;;;;;;;;5120257;27;20037;-86
2023/12/10 06:11:07;;;;;;;5.97;1.13;;;;;;;;;;5123660;27;20038;-88
2023/12/10 06:13:33;;;;;;;5.28;1.48;;;;;;;;;;5108810;28;20057;-86
2023/12/10 06:15:59;;;;;;;4.53;0.75;;;;;;;;;;5134199;28;20106;-86
2023/12/10 06:18:25;;;;;;;7.72;1.75;;;;;;;;;;5115371;28;20455;-85
2023/12/10 06:20:50;;;;;;;1.48;0.65;;;;;;;;;;5133538;28;20497;-86
2023/12/10 06:23:15;;;;;;;0.73;0.65;;;;;;;;;;5130627;28;20031;-86
2023/12/10 06:25:41;;;;;;;4.82;1.13;;;;;;;;;;5119651;28;20022;-85
2023/12/10 06:28:06;;;;;;;5.70;0.93;;;;;;;;;;5124721;28;20384;-87
2023/12/10 06:30:31;;;;;;;7.15;2.15;;;;;;;;;;5107595;28;20109;-87
2023/12/10 06:32:57;;;;;;;3.35;1.10;;;;;;;;;;5127515;27;20023;-87
2023/12/10 06:35:22;;;;;;;7.50;1.02;;;;;;;;;;5138092;27;20030;-88
2023/12/10 06:37:48;;;;;;;3.97;1.52;;;;;;;;;;5125760;27;20031;-85
2023/12/10 06:40:14;;;;;;;4.05;1.55;;;;;;;;;;5113626;28;20019;-88
2023/12/10 06:42:40;;;;;;;9.30;1.48;;;;;;;;;;5118480;28;20488;-88
2023/12/10 06:45:05;;;;;;;5.28;1.35;;;;;;;;;;5134411;27;20023;-85
2023/12/10 06:47:32;;;;;;;3.30;1.50;;;;;;;;;;5120010;27;20024;-86
2023/12/10 06:49:57;;;;;;;4.82;0.82;;;;;;;;;;5133386;27;20011;-87
2023/12/10 06:52:22;;;;;;;3.08;0.95;;;;;;;;;;5119743;27;20023;-86
2023/12/10 06:54:48;;;;;;;3.50;1.45;;;;;;;;;;5139194;27;20015;-87
2023/12/10 06:57:13;;;;;;;6.80;1.10;;;;;;;;;;5127579;27;20474;-88
2023/12/10 06:59:39;;;;;;;8.15;1.23;;;;;;;;;;5129905;27;20019;-89
2023/12/10 07:02:04;;;;;;;7.07;1.90;;;;;;;;;;5103433;28;20061;-87
2023/12/10 07:04:29;;;;;;;7.38;1.35;;;;;;;;;;5138015;27;20721;-89
2023/12/10 07:06:55;;;;;;;5.90;0.77;;;;;;;;;;5137485;27;20027;-88
2023/12/10 07:09:21;;;;;;;10.82;2.03;;;;;;;;;;5129595;27;20100;-87
2023/12/10 07:11:46;;;;;;;8.23;1.73;;;;;;;;;;5139094;27;20064;-88
2023/12/10 07:14:12;;;;;;;8.20;1.15;;;;;;;;;;5138642;27;20027;-88
2023/12/10 07:16:37;;;;;;;6.88;1.13;;;;;;;;;;5139526;27;20019;-86
2023/12/10 07:19:03;;;;;;;4.85;1.92;;;;;;;;;;5114465;27;20184;-89
2023/12/10 07:21:28;;;;;;;0.68;0.68;;;;;;;;;;5144326;27;20031;-83
2023/12/10 07:23:53;;;;;;;2.70;1.08;;;;;;;;;;5140206;27;20184;-83
2023/12/10 07:26:23;;;;;;;2.70;0.90;;;;;;;;;;5151519;27;20022;-83
2023/12/10 07:28:49;;;;;;;5.45;1.13;;;;;;;;;;5151674;27;20023;-84
2023/12/10 07:31:15;;;;;;;7.95;1.08;;;;;;;;;;5143587;27;20085;-88
2023/12/10 07:33:41;;;;;;;5.32;0.95;;;;;;;;;;5128882;27;20023;-90
2023/12/10 07:36:07;;;;;;;2.30;0.80;;;;;;;;;;5129564;27;20020;-88
2023/12/10 07:38:32;;;;;;;6.07;0.55;;;;;;;;;;5115526;27;20295;-86
2023/12/10 07:40:58;;;;;;;1.67;0.82;;;;;;;;;;5117740;28;20020;-88
2023/12/10 07:43:23;;;;;;;6.35;1.95;;;;;;;;;;5125840;27;20023;-88
2023/12/10 07:45:49;;;;;;;5.03;1.20;;;;;;;;;;5134581;27;20042;-89
2023/12/10 07:48:15;;;;;;;9.50;1.05;;;;;;;;;;5118656;27;20031;-88
2023/12/10 07:50:41;;;;;;;4.15;0.68;;;;;;;;;;5135391;27;20380;-89
2023/12/10 07:53:06;;;;;;;5.55;1.17;;;;;;;;;;5104996;28;20507;-87
2023/12/10 07:55:31;;;;;;;1.95;0.77;;;;;;;;;;5134071;27;20199;-88
2023/12/10 07:57:57;;;;;;;6.25;2.25;;;;;;;;;;5125621;27;20352;-89
2023/12/10 08:00:22;;;;;;;5.03;1.27;;;;;;;;;;5119014;27;20030;-86
2023/12/10 08:02:47;;;;;;;0.52;0.30;;;;;;;;;;5132396;27;20415;-89
2023/12/10 08:05:13;;;;;;;6.72;1.33;;;;;;;;;;5127439;27;20035;-88
2023/12/10 08:07:38;;;;;;;3.65;1.38;;;;;;;;;;5127544;27;20034;-87
2023/12/10 08:10:05;;;;;;;6.28;1.50;;;;;;;;;;5117818;27;20027;-89
2023/12/10 08:12:30;;;;;;;5.90;1.40;;;;;;;;;;5136047;27;20019;-89
2023/12/10 08:14:56;;;;;;;6.88;1.33;;;;;;;;;;5116539;27;20034;-89
2023/12/10 08:17:21;;;;;;;4.80;1.38;;;;;;;;;;5140537;27;20102;-87
2023/12/10 08:19:46;;;;;;;3.33;1.05;;;;;;;;;;5140980;27;20586;-87
2023/12/10 08:22:13;;;;;;;11.45;1.35;;;;;;;;;;5121951;27;20029;-88
2023/12/10 08:24:39;;;;;;;5.93;1.30;;;;;;;;;;5136332;27;20022;-87
2023/12/10 08:27:04;;;;;;;3.33;1.10;;;;;;;;;;5137575;27;20035;-88
2023/12/10 08:29:30;;;;;;;5.38;0.65;;;;;;;;;;5114351;27;20024;-86
2023/12/10 08:31:56;;;;;;;5.30;1.75;;;;;;;;;;5130720;27;20087;-89
2023/12/10 08:34:21;;;;;;;4.07;1.00;;;;;;;;;;5122989;27;20031;-89
2023/12/10 08:36:46;;;;;;;0.90;0.55;;;;;;;;;;5133818;27;20038;-89
2023/12/10 08:39:13;;;;;;;5.90;1.83;;;;;;;;;;5130231;27;20026;-88
2023/12/10 08:41:38;;;;;;;3.42;0.93;;;;;;;;;;5142070;27;20118;-89
2023/12/10 08:44:04;;;;;;;4.75;1.85;;;;;;;;;;5120448;27;20039;-89
2023/12/10 08:46:29;;;;;;;4.35;0.93;;;;;;;;;;5133114;27;20028;-85
2023/12/10 08:48:55;;;;;;;4.32;1.35;;;;;;;;;;5118085;28;20512;-90
2023/12/10 08:51:21;;;;;;;3.67;0.88;;;;;;;;;;5139596;27;20023;-88
2023/12/10 08:53:46;;;;;;;5.93;1.08;;;;;;;;;;5124791;27;20109;-88
2023/12/10 08:56:11;;;;;;;3.30;1.20;;;;;;;;;;5119651;27;20111;-90
2023/12/10 08:58:37;;;;;;;9.30;1.42;;;;;;;;;;5129631;27;20061;-90
2023/12/10 09:01:03;;;;;;;10.55;1.33;;;;;;;;;;5138870;27;20034;-86
2023/12/10 09:03:28;;;;;;;2.35;0.85;;;;;;;;;;5134925;27;20027;-88
2023/12/10 09:05:54;;;;;;;6.07;1.85;;;;;;;;;;5128889;27;20629;-87
2023/12/10 09:08:19;;;;;;;1.27;0.70;;;;;;;;;;5124373;28;20022;-87
2023/12/10 09:10:44;;;;;;;4.78;1.20;;;;;;;;;;5128196;27;20053;-88
2023/12/10 09:13:10;;;;;;;3.58;0.85;;;;;;;;;;5150186;27;20073;-84
2023/12/10 09:15:35;;;;;;;6.15;1.63;;;;;;;;;;5138845;27;20030;-87
2023/12/10 09:18:07;;;;;;;2.38;0.77;;;;;;;;;;5074577;28;20372;-80
2023/12/10 09:20:32;;;;;;;6.18;2.03;;;;;;;;;;5073619;28;20036;-78
2023/12/10 09:22:57;;;;;;;2.35;1.23;;;;;;;;;;5056421;28;20025;-78
2023/12/10 09:25:23;;;;;;;6.68;1.05;;;;;;;;;;5063424;28;20028;-79
2023/12/10 09:27:48;;;;;;;0.98;0.63;;;;;;;;;;5055752;28;20023;-79
2023/12/10 09:30:14;;;;;;;6.10;1.15;;;;;;;;;;5055712;28;20021;-78
2023/12/10 09:32:39;;;;;;;4.07;0.82;;;;;;;;;;5056418;28;20082;-78
2023/12/10 09:35:05;;;;;;;2.55;0.90;;;;;;;;;;5055444;28;20025;-78
2023/12/10 09:37:31;;;;;;;5.88;1.25;;;;;;;;;;5061170;28;20021;-79
2023/12/10 09:39:56;;;;;;;2.22;0.90;;;;;;;;;;5053679;28;20029;-80
2023/12/10 09:42:21;;;;;;;7.00;2.42;;;;;;;;;;5053988;28;20483;-80
2023/12/10 09:44:47;;;;;;;2.95;1.17;;;;;;;;;;5056330;28;20048;-80
2023/12/10 09:47:12;;;;;;;2.35;0.98;;;;;;;;;;5052428;28;20020;-78
2023/12/10 09:49:40;;;;;;;5.90;1.35;;;;;;;;;;5053635;28;20028;-79
2023/12/10 09:52:09;;;;;;;6.78;1.75;;;;;;;;;;5053868;28;20040;-80
2023/12/10 09:54:40;;;;;;;8.95;1.83;;;;;;;;;;5053757;28;20025;-78
2023/12/10 09:57:06;;;;;;;0.80;0.55;;;;;;;;;;5054958;28;20048;-80
2023/12/10 09:59:31;;;;;;;0.85;0.80;;;;;;;;;;5049632;28;20105;-81
2023/12/10 10:01:57;;;;;;;1.23;0.65;;;;;;;;;;5058095;28;20040;-80
2023/12/10 10:04:23;;;;;;;0.90;0.38;;;;;;;;;;5048849;28;20377;-80
2023/12/10 10:06:48;;;;;;;7.60;1.20;;;;;;;;;;5052790;28;20018;-80
2023/12/10 10:09:14;;;;;;;5.57;1.05;;;;;;;;;;5049427;28;20037;-80
2023/12/10 10:11:39;;;;;;;3.83;1.15;;;;;;;;;;5052451;28;20041;-81
2023/12/10 10:14:05;;;;;;;7.97;1.25;;;;;;;;;;5049107;28;20040;-80
2023/12/10 10:16:31;;;;;;;2.53;1.02;;;;;;;;;;5047475;28;20115;-80
2023/12/10 10:18:59;;;;;;;5.82;0.77;;;;;;;;;;5049053;28;20470;-80
2023/12/10 10:21:24;;;;;;;2.25;0.68;;;;;;;;;;5048404;28;20392;-80
2023/12/10 10:23:50;;;;;;;1.35;0.60;;;;;;;;;;5059236;28;20120;-80
2023/12/10 10:26:16;;;;;;;0.50;0.50;;;;;;;;;;5051303;28;20415;-79
2023/12/10 10:28:41;;;;;;;4.65;0.75;;;;;;;;;;5043679;28;20053;-80
2023/12/10 10:31:09;;;;;;;1.23;0.82;;;;;;;;;;5040131;28;20026;-80
2023/12/10 10:33:35;;;;;;;6.35;0.90;;;;;;;;;;5038427;28;20182;-79
2023/12/10 10:36:02;;;;;;;4.63;1.20;;;;;;;;;;5039886;28;20106;-80
2023/12/10 10:38:29;;;;;;;5.22;0.90;;;;;;;;;;5038488;28;20393;-79
2023/12/10 10:41:01;;;;;;;0.90;0.38;;;;;;;;;;5038046;28;20029;-81
2023/12/10 10:43:26;;;;;;;3.10;0.60;;;;;;;;;;5037913;28;20044;-80
2023/12/10 10:45:53;;;;;;;5.65;0.90;;;;;;;;;;5038858;28;20030;-79
2023/12/10 10:48:18;;;;;;;1.35;0.82;;;;;;;;;;5038704;28;20480;-80
2023/12/10 10:50:44;;;;;;;6.90;1.60;;;;;;;;;;5038915;28;20075;-79
2023/12/10 10:53:11;;;;;;;3.17;0.95;;;;;;;;;;5035825;28;20037;-79
2023/12/10 10:55:37;;;;;;;1.30;0.85;;;;;;;;;;5039763;28;20051;-79
2023/12/10 10:58:24;;;;;;;3.42;1.67;;;;;;;;;;5045881;28;20021;-79
2023/12/10 11:00:50;;;;;;;3.13;1.30;;;;;;;;;;5039633;28;20071;-80
2023/12/10 11:03:17;;;;;;;1.63;0.77;;;;;;;;;;5035169;28;20037;-79
2023/12/10 11:05:47;;;;;;;3.35;1.00;;;;;;;;;;5042329;28;20303;-79
2023/12/10 11:08:12;;;;;;;7.57;1.52;;;;;;;;;;5045904;28;20714;-81
2023/12/10 11:10:42;;;;;;;9.18;1.20;;;;;;;;;;5040502;28;20132;-80
2023/12/10 11:13:07;;;;;;;0.30;0.30;;;;;;;;;;5052173;28;20024;-79
2023/12/10 11:15:33;;;;;;;2.47;0.75;;;;;;;;;;5040645;28;20037;-80
2023/12/10 11:18:00;;;;;;;4.38;0.90;;;;;;;;;;5037870;28;20041;-80
2023/12/10 11:20:41;;;;;;;1.38;1.15;;;;;;;;;;5039801;28;20055;-81
2023/12/10 11:23:09;;;;;;;4.20;1.30;;;;;;;;;;5034240;28;20132;-79
2023/12/10 11:25:36;;;;;;;2.67;0.65;;;;;;;;;;5041254;28;20037;-80
2023/12/10 11:28:07;;;;;;;4.68;0.98;;;;;;;;;;5036289;28;20053;-81
2023/12/10 11:30:32;;;;;;;2.85;1.02;;;;;;;;;;5038710;28;20029;-79
2023/12/10 11:32:58;;;;;;;1.75;1.15;;;;;;;;;;5038880;28;20033;-79
2023/12/10 11:35:23;;;;;;;7.88;2.08;;;;;;;;;;5036172;28;20067;-80
2023/12/10 11:37:49;;;;;;;6.30;1.45;;;;;;;;;;5036122;28;20464;-80
2023/12/10 11:40:14;;;;;;;1.33;1.00;;;;;;;;;;5043060;28;20033;-80
2023/12/10 11:42:39;;;;;;;6.45;1.73;;;;;;;;;;5040337;28;20029;-79
2023/12/10 11:45:05;;;;;;;9.95;1.13;;;;;;;;;;5041325;28;20033;-79
2023/12/10 11:47:31;;;;;;;5.35;1.40;;;;;;;;;;5050956;28;20037;-81
2023/12/10 11:49:56;;;;;;;6.25;1.33;;;;;;;;;;5047763;28;20384;-83
2023/12/10 11:52:22;;;;;;;4.00;1.20;;;;;;;;;;5037730;28;20025;-80
2023/12/10 11:54:48;;;;;;;2.15;0.80;;;;;;;;;;5035384;28;20511;-79
2023/12/10 11:57:13;;;;;;;3.65;1.13;;;;;;;;;;5035177;28;20107;-79
2023/12/10 11:59:38;;;;;;;7.22;0.85;;;;;;;;;;5034458;28;20052;-79
2023/12/10 12:02:05;;;;;;;2.30;0.98;;;;;;;;;;5035066;28;20030;-79
2023/12/10 12:04:33;;;;;;;4.82;1.10;;;;;;;;;;5036800;28;20083;-79
2023/12/10 12:06:58;;;;;;;3.60;0.98;;;;;;;;;;5036040;28;20038;-80
2023/12/10 12:09:25;;;;;;;3.17;1.13;;;;;;;;;;5045789;28;20033;-85
2023/12/10 12:11:51;;;;;;;4.53;1.33;;;;;;;;;;5055133;28;20051;-79
2023/12/10 12:14:17;;;;;;;4.57;1.02;;;;;;;;;;5045073;28;20025;-80
2023/12/10 12:16:43;;;;;;;9.05;2.28;;;;;;;;;;5044118;28;20020;-80
2023/12/10 12:19:08;;;;;;;3.70;0.93;;;;;;;;;;5045229;28;20033;-80
2023/12/10 12:21:33;;;;;;;8.60;1.70;;;;;;;;;;5037547;28;20132;-82
2023/12/10 12:23:59;;;;;;;2.72;0.85;;;;;;;;;;5041090;28;20032;-83
2023/12/10 12:26:24;;;;;;;2.15;0.80;;;;;;;;;;5040909;28;20033;-80
2023/12/10 12:28:49;;;;;;;8.75;1.73;;;;;;;;;;5030400;28;20107;-81
2023/12/10 12:31:15;;;;;;;5.68;0.98;;;;;;;;;;5042219;28;20032;-80
2023/12/10 12:33:40;;;;;;;5.75;1.77;;;;;;;;;;5034805;28;20033;-79
2023/12/10 12:36:06;;;;;;;5.50;1.15;;;;;;;;;;5044514;28;20057;-81
2023/12/10 12:38:31;;;;;;;8.25;1.40;;;;;;;;;;5040972;28;20049;-81
2023/12/10 12:40:57;;;;;;;7.07;1.15;;;;;;;;;;5042482;28;20170;-78
2023/12/10 12:43:22;;;;;;;9.93;1.75;;;;;;;;;;5039645;28;20038;-80
2023/12/10 12:45:47;;;;;;;3.13;0.88;;;;;;;;;;5047056;28;20042;-78
2023/12/10 12:48:13;;;;;;;2.33;1.00;;;;;;;;;;5048646;28;20059;-78
2023/12/10 12:50:38;;;;;;;6.47;1.42;;;;;;;;;;5043334;28;20111;-78
2023/12/10 12:53:03;;;;;;;10.32;2.00;;;;;;;;;;5047287;28;20124;-78
2023/12/10 12:55:29;;;;;;;2.58;1.20;;;;;;;;;;5042327;28;20076;-78
2023/12/10 12:57:54;;;;;;;6.10;1.42;;;;;;;;;;5039644;28;20021;-78
2023/12/10 13:00:20;;;;;;;5.35;1.48;;;;;;;;;;5036692;28;20048;-79
2023/12/10 13:02:45;;;;;;;2.90;0.85;;;;;;;;;;5044835;28;20028;-80
2023/12/10 13:05:11;;;;;;;2.65;1.00;;;;;;;;;;5047380;28;20052;-80
2023/12/10 13:07:37;;;;;;;5.72;1.67;;;;;;;;;;5044249;28;20025;-79
2023/12/10 13:10:03;;;;;;;5.82;1.30;;;;;;;;;;5048756;28;20045;-79
2023/12/10 13:12:28;;;;;;;4.40;1.20;;;;;;;;;;5044467;28;20014;-84
2023/12/10 13:14:55;;;;;;;3.22;0.85;;;;;;;;;;5052407;28;20030;-80
2023/12/10 13:17:20;;;;;;;5.28;0.88;;;;;;;;;;5049694;28;20025;-84
2023/12/10 13:19:46;;;;;;;4.45;1.40;;;;;;;;;;5053225;28;20028;-83
2023/12/10 13:22:11;;;;;;;4.45;1.08;;;;;;;;;;5045222;28;20029;-79
2023/12/10 13:24:37;;;;;;;3.42;1.45;;;;;;;;;;5042503;28;20079;-79
2023/12/10 13:27:03;;;;;;;4.55;1.55;;;;;;;;;;5032240;28;20025;-82
2023/12/10 13:29:29;;;;;;;3.88;1.42;;;;;;;;;;5041770;28;20211;-79
2023/12/10 13:31:55;;;;;;;5.00;1.58;;;;;;;;;;5052361;28;20031;-79
2023/12/10 13:34:20;;;;;;;2.65;1.38;;;;;;;;;;5036153;28;20022;-79
2023/12/10 13:36:45;;;;;;;3.25;1.48;;;;;;;;;;5034422;28;20033;-82
2023/12/10 13:39:11;;;;;;;1.58;1.00;;;;;;;;;;5034521;28;20018;-81
2023/12/10 13:41:36;;;;;;;4.88;1.23;;;;;;;;;;5036841;28;20025;-80
2023/12/10 13:44:02;;;;;;;2.97;0.75;;;;;;;;;;5053557;28;20041;-80
2023/12/10 13:46:27;;;;;;;0.93;0.77;;;;;;;;;;5046864;28;20037;-77
2023/12/10 13:48:52;;;;;;;2.42;0.85;;;;;;;;;;5041003;28;20036;-81
2023/12/10 13:51:18;;;;;;;3.90;1.38;;;;;;;;;;5045874;28;20036;-79
2023/12/10 13:53:45;;;;;;;4.25;1.40;;;;;;;;;;5042780;28;20033;-81
2023/12/10 13:56:10;;;;;;;9.20;2.30;;;;;;;;;;5036168;28;20029;-79
2023/12/10 13:58:35;;;;;;;4.00;0.85;;;;;;;;;;5034252;28;20081;-81
2023/12/10 14:01:01;;;;;;;5.75;1.17;;;;;;;;;;5033159;28;20033;-82
2023/12/10 14:03:26;;;;;;;3.67;0.90;;;;;;;;;;5041590;28;20049;-79
2023/12/10 14:05:52;;;;;;;6.32;1.30;;;;;;;;;;5041437;28;20622;-81
2023/12/10 14:08:17;;;;;;;7.25;1.40;;;;;;;;;;5038139;28;20022;-81
2023/12/10 14:10:42;;;;;;;6.32;1.17;;;;;;;;;;5034972;28;20503;-80
2023/12/10 14:13:08;;;;;;;4.75;1.05;;;;;;;;;;5037962;28;20025;-82
2023/12/10 14:15:34;;;;;;;9.07;1.50;;;;;;;;;;5038261;28;20089;-82
2023/12/10 14:18:00;;;;;;;13.70;1.65;;;;;;;;;;5036052;28;21114;-82
2023/12/10 14:20:25;;;;;;;5.35;1.10;;;;;;;;;;5036791;28;20037;-82
2023/12/10 14:22:50;;;;;;;3.22;1.33;;;;;;;;;;5036708;28;20025;-80
2023/12/10 14:25:16;;;;;;;6.00;1.55;;;;;;;;;;5031180;28;20030;-79
2023/12/10 14:27:42;;;;;;;1.45;1.10;;;;;;;;;;5021282;28;20033;-80
2023/12/10 14:30:07;;;;;;;7.78;0.95;;;;;;;;;;5030924;28;20056;-80
2023/12/10 14:32:33;;;;;;;2.83;1.27;;;;;;;;;;5038412;28;20037;-81
2023/12/10 14:34:58;;;;;;;2.42;1.23;;;;;;;;;;5038222;28;20048;-80
2023/12/10 14:37:23;;;;;;;2.50;0.98;;;;;;;;;;5038653;28;20059;-80
2023/12/10 14:39:49;;;;;;;9.23;1.70;;;;;;;;;;5038668;28;20017;-80
2023/12/10 14:42:14;;;;;;;1.63;1.20;;;;;;;;;;5036847;28;20116;-79